DAL2033 KBOS-KMSP
Flight info
| Callsign | DAL2033 |
|---|---|
| Flight time | N/A |
| Altitude | 36000 |
| Route | HYLND7 HYLND HANAA Q816 KELTI Q812 ZOHAN IDIOM MUSCL4 |
| Aircraft | A320/M-SDE3FGHIRWY/LB1 |
Departure
| Time | 2026-05-04 13:21 |
|---|---|
| Airport | Boston Logan International Airport (KBOS) |
Arrival
| Time | N/A |
|---|---|
| Airport | Minneapolis–Saint Paul International Airport / Wold–Chamberlain Field (KMSP) |
| Time | Latitude | Longitude | Altitude | Speed | Heading |
|---|---|---|---|---|---|
| 2026-05-04 13:06 | 42.36226 | -71.02441 | 28 ft | 0 kts | 274° |
| 2026-05-04 13:10 | 42.36226 | -71.02439 | 29 ft | 2 kts | 274° |
| 2026-05-04 13:10 | 42.36224 | -71.02404 | 29 ft | 3 kts | 274° |
| 2026-05-04 13:10 | 42.36226 | -71.02358 | 29 ft | 4 kts | 235° |
| 2026-05-04 13:11 | 42.36250 | -71.02342 | 29 ft | 0 kts | 195° |
| 2026-05-04 13:13 | 42.36184 | -71.02352 | 28 ft | 19 kts | 186° |
| 2026-05-04 13:13 | 42.36052 | -71.02293 | 28 ft | 20 kts | 142° |
| 2026-05-04 13:13 | 42.35976 | -71.02134 | 28 ft | 20 kts | 121° |
| 2026-05-04 13:13 | 42.35908 | -71.01980 | 28 ft | 20 kts | 120° |
| 2026-05-04 13:14 | 42.35849 | -71.01810 | 28 ft | 19 kts | 105° |
| 2026-05-04 13:14 | 42.35820 | -71.01629 | 28 ft | 19 kts | 93° |
| 2026-05-04 13:14 | 42.35919 | -71.01532 | 28 ft | 19 kts | 19° |
| 2026-05-04 13:14 | 42.36043 | -71.01474 | 28 ft | 18 kts | 19° |
| 2026-05-04 13:15 | 42.36167 | -71.01413 | 28 ft | 18 kts | 20° |
| 2026-05-04 13:15 | 42.36292 | -71.01352 | 28 ft | 19 kts | 19° |
| 2026-05-04 13:15 | 42.36409 | -71.01296 | 28 ft | 17 kts | 20° |
| 2026-05-04 13:15 | 42.36528 | -71.01238 | 28 ft | 23 kts | 19° |
| 2026-05-04 13:16 | 42.36704 | -71.01154 | 28 ft | 21 kts | 19° |
| 2026-05-04 13:16 | 42.36826 | -71.01197 | 28 ft | 15 kts | 314° |
| 2026-05-04 13:16 | 42.36916 | -71.01186 | 28 ft | 15 kts | 43° |
| 2026-05-04 13:16 | 42.36999 | -71.01100 | 28 ft | 15 kts | 28° |
| 2026-05-04 13:17 | 42.37102 | -71.01034 | 28 ft | 23 kts | 25° |
| 2026-05-04 13:17 | 42.37235 | -71.00947 | 28 ft | 20 kts | 26° |
| 2026-05-04 13:17 | 42.37363 | -71.00874 | 28 ft | 19 kts | 19° |
| 2026-05-04 13:17 | 42.37494 | -71.00813 | 28 ft | 19 kts | 19° |
| 2026-05-04 13:18 | 42.37619 | -71.00748 | 28 ft | 19 kts | 20° |
| 2026-05-04 13:18 | 42.37743 | -71.00686 | 28 ft | 19 kts | 28° |
| 2026-05-04 13:18 | 42.37756 | -71.00546 | 28 ft | 11 kts | 110° |
| 2026-05-04 13:18 | 42.37725 | -71.00503 | 28 ft | 5 kts | 198° |
| 2026-05-04 13:19 | 42.37720 | -71.00505 | 28 ft | 0 kts | 199° |
| 2026-05-04 13:20 | 42.37717 | -71.00506 | 28 ft | 2 kts | 199° |
| 2026-05-04 13:20 | 42.37482 | -71.00622 | 29 ft | 71 kts | 201° |
| 2026-05-04 13:20 | 42.36812 | -71.00950 | 29 ft | 132 kts | 201° |
| 2026-05-04 13:21 | 42.35846 | -71.01437 | 330 ft | 153 kts | 204° |
| 2026-05-04 13:21 | 42.34898 | -71.01857 | 859 ft | 155 kts | 191° |
| 2026-05-04 13:21 | 42.33820 | -71.01551 | 1350 ft | 168 kts | 146° |
| 2026-05-04 13:21 | 42.32992 | -71.00391 | 1907 ft | 175 kts | 130° |
| 2026-05-04 13:22 | 42.32257 | -70.99004 | 2296 ft | 189 kts | 128° |
| 2026-05-04 13:22 | 42.31473 | -70.97487 | 2670 ft | 205 kts | 123° |
| 2026-05-04 13:22 | 42.31075 | -70.95582 | 3008 ft | 223 kts | 85° |
| 2026-05-04 13:22 | 42.31365 | -70.93452 | 3335 ft | 244 kts | 75° |
| 2026-05-04 13:23 | 42.31726 | -70.91409 | 3707 ft | 260 kts | 76° |
| 2026-05-04 13:23 | 42.32152 | -70.88924 | 4220 ft | 275 kts | 77° |
| 2026-05-04 13:23 | 42.32554 | -70.86396 | 4988 ft | 278 kts | 76° |
| 2026-05-04 13:23 | 42.32939 | -70.83873 | 5803 ft | 279 kts | 77° |
| 2026-05-04 13:24 | 42.33318 | -70.81360 | 6597 ft | 280 kts | 77° |
| 2026-05-04 13:24 | 42.33715 | -70.78716 | 7367 ft | 282 kts | 76° |
| 2026-05-04 13:24 | 42.34478 | -70.76279 | 8098 ft | 282 kts | 50° |
| 2026-05-04 13:25 | 42.37781 | -70.73762 | 9560 ft | 282 kts | 16° |
| 2026-05-04 13:25 | 42.39684 | -70.73016 | 10214 ft | 287 kts | 15° |
| 2026-05-04 13:25 | 42.41551 | -70.72277 | 10633 ft | 299 kts | 16° |
| 2026-05-04 13:25 | 42.43348 | -70.71658 | 10883 ft | 314 kts | 7° |
| 2026-05-04 13:26 | 42.45689 | -70.71781 | 11234 ft | 328 kts | 346° |
| 2026-05-04 13:26 | 42.47852 | -70.72913 | 11848 ft | 332 kts | 334° |
| 2026-05-04 13:26 | 42.49865 | -70.74243 | 12467 ft | 335 kts | 333° |
| 2026-05-04 13:26 | 42.51945 | -70.75751 | 13057 ft | 339 kts | 326° |
| 2026-05-04 13:27 | 42.53529 | -70.77447 | 13561 ft | 341 kts | 315° |
| 2026-05-04 13:27 | 42.55061 | -70.79936 | 14159 ft | 344 kts | 305° |
| 2026-05-04 13:27 | 42.56116 | -70.82053 | 14618 ft | 346 kts | 303° |
| 2026-05-04 13:27 | 42.57066 | -70.84033 | 15018 ft | 348 kts | 303° |
| 2026-05-04 13:28 | 42.58498 | -70.87032 | 15610 ft | 352 kts | 303° |
| 2026-05-04 13:28 | 42.59842 | -70.89831 | 16151 ft | 355 kts | 303° |
| 2026-05-04 13:28 | 42.61200 | -70.92643 | 16677 ft | 357 kts | 303° |
| 2026-05-04 13:28 | 42.62592 | -70.95517 | 17199 ft | 360 kts | 303° |
| 2026-05-04 13:29 | 42.63678 | -70.97753 | 17593 ft | 362 kts | 303° |
| 2026-05-04 13:29 | 42.65079 | -71.00640 | 18088 ft | 365 kts | 303° |
| 2026-05-04 13:29 | 42.66425 | -71.03413 | 18547 ft | 368 kts | 303° |
| 2026-05-04 13:29 | 42.67913 | -71.06481 | 19039 ft | 370 kts | 303° |
| 2026-05-04 13:30 | 42.69358 | -71.09463 | 19502 ft | 373 kts | 303° |
| 2026-05-04 13:30 | 42.70607 | -71.12041 | 19893 ft | 375 kts | 303° |
| 2026-05-04 13:30 | 42.72065 | -71.15055 | 20340 ft | 378 kts | 303° |
| 2026-05-04 13:30 | 42.73523 | -71.18074 | 20776 ft | 380 kts | 303° |
| 2026-05-04 13:31 | 42.74714 | -71.20540 | 21122 ft | 382 kts | 303° |
| 2026-05-04 13:31 | 42.76175 | -71.23573 | 21537 ft | 385 kts | 302° |
| 2026-05-04 13:31 | 42.77428 | -71.26553 | 21914 ft | 387 kts | 296° |
| 2026-05-04 13:31 | 42.78484 | -71.29946 | 22313 ft | 390 kts | 289° |
| 2026-05-04 13:32 | 42.79254 | -71.33481 | 22706 ft | 392 kts | 285° |
| 2026-05-04 13:32 | 42.79850 | -71.36616 | 23045 ft | 394 kts | 284° |
| 2026-05-04 13:32 | 42.80395 | -71.39554 | 23348 ft | 396 kts | 284° |
| 2026-05-04 13:32 | 42.81068 | -71.43193 | 23716 ft | 398 kts | 284° |
| 2026-05-04 13:33 | 42.81756 | -71.46903 | 24084 ft | 400 kts | 284° |
| 2026-05-04 13:33 | 42.82438 | -71.50562 | 24439 ft | 402 kts | 284° |
| 2026-05-04 13:33 | 42.83133 | -71.54292 | 24791 ft | 404 kts | 284° |
| 2026-05-04 13:33 | 42.83820 | -71.57976 | 25128 ft | 407 kts | 284° |
| 2026-05-04 13:34 | 42.84516 | -71.61715 | 25459 ft | 409 kts | 284° |
| 2026-05-04 13:34 | 42.85160 | -71.65178 | 25758 ft | 411 kts | 284° |
| 2026-05-04 13:34 | 42.85867 | -71.68977 | 26077 ft | 413 kts | 284° |
| 2026-05-04 13:34 | 42.86569 | -71.72765 | 26387 ft | 415 kts | 284° |
| 2026-05-04 13:35 | 42.87279 | -71.76598 | 26691 ft | 417 kts | 284° |
| 2026-05-04 13:35 | 42.88695 | -71.84270 | 27273 ft | 420 kts | 284° |
| 2026-05-04 13:35 | 42.89410 | -71.88157 | 27558 ft | 422 kts | 284° |
| 2026-05-04 13:36 | 42.90054 | -71.91661 | 27803 ft | 424 kts | 284° |
| 2026-05-04 13:36 | 42.90782 | -71.95632 | 28074 ft | 426 kts | 284° |
| 2026-05-04 13:36 | 42.91499 | -71.99553 | 28336 ft | 427 kts | 284° |
| 2026-05-04 13:36 | 42.92049 | -72.02564 | 28532 ft | 429 kts | 284° |
| 2026-05-04 13:37 | 42.92485 | -72.04958 | 28685 ft | 430 kts | 284° |